Millardsville, Pennsylvania
Current Conditions -  °F | °C
As of 6:58 AM on Thursday 29 Jan 2015 (Local Time) from KMUI Reporting Station
Clear Clear  
Wind Chill:   Ceiling: Unl
Heat Index:   Visibility: 10mi
Dew Point:   Wind: 2mph
Humidity: 77%   Direction: 110°ESE
Pressure: 30.3"   Gusts: NA
Location:  40.3869°N, 76.3173°W
Report Text: KMUI 291158Z AUTO 11002KT 10SM CLR M15/M18 A3030 RMK AO2 SLP272 T11461179 11098 21152 56003
Loading
Personal Weather Stations






























Interactive Weather Map New forecast layout! Learn more

10-Day Weather Forecast

Advertisements
Track Severe Weather on mobile